»·PEaware :: N47406 KLAX-KSNA

N47406 :: KLAX-KSNA

FLIGHT INFORMATION

Flight Status: Arrived
Operator: Privately registered:
United States
More flights under this callsign
Pilot: Anonymous 8231 (8231)
Aircraft: PIPER PA-28 CHEROKEE ARCHER
(P28A)
More flights by this aircraft type
Origin: KLAX Los Angeles Intl
United States
Destination: KSNA John Wayne-Orange Co
United States
More flights between these airports :: More routes between these airports
Route: SLI8 SLI
File this flight plan on PilotEdge
Remarks: I-6 rating
Altitude:
(Current/Filed)
4,000ft
Speed:
(Current/Filed)
105kts
Departed: 13-Feb-20 12:45 PM
Arrived: 13-Feb-20 01:30 PM
Distance/Time
Traveled:
31nm/0:45
Distance/Time
To Go:
Arrived

Flight Plot

Page will automatically refresh every two minutes.

Flight plan parsing failed; only flown route is shown


Map Options




Map Legend


Flown Route
Filed Route
Departure Airport
Arrival Airport
Navaid (VOR, NDB)
Fix

Horizontal Profiles

Position Reports

Time Latitude Longitude Heading Altitude Ground
Speed
13-Feb-20 12:31 33.933634 -118.399303 174 110ft 0kts
13-Feb-20 12:32 33.933634 -118.399303 174 110ft 0kts
13-Feb-20 12:33 33.933634 -118.399303 174 110ft 0kts
13-Feb-20 12:34 33.933634 -118.399303 174 110ft 0kts
13-Feb-20 12:35 33.933634 -118.399303 174 110ft 0kts
13-Feb-20 12:36 33.933634 -118.399303 174 110ft 0kts
13-Feb-20 12:37 33.933634 -118.399303 174 110ft 0kts
13-Feb-20 12:38 33.933611 -118.399299 173 110ft 2kts
13-Feb-20 12:39 33.934615 -118.397565 82 108ft 12kts
13-Feb-20 12:40 33.934964 -118.394202 80 103ft 15kts
13-Feb-20 12:41 33.935537 -118.388606 82 98ft 30kts
13-Feb-20 12:42 33.936488 -118.382813 7 95ft 0kts
13-Feb-20 12:43 33.936488 -118.382813 7 95ft 0kts
13-Feb-20 12:44 33.936488 -118.382813 7 95ft 0kts
13-Feb-20 12:45 33.936830 -118.387994 265 180ft 62kts
13-Feb-20 12:46 33.933619 -118.411004 259 1079ft 71kts
13-Feb-20 12:46 33.930310 -118.433063 258 1939ft 71kts
13-Feb-20 12:48 33.909869 -118.453334 206 3008ft 85kts
13-Feb-20 12:49 33.886632 -118.466288 203 3903ft 77kts
13-Feb-20 12:49 33.868684 -118.455550 138 4109ft 100kts
13-Feb-20 12:50 33.843717 -118.429864 144 3957ft 103kts
13-Feb-20 12:52 33.816325 -118.401823 143 3938ft 102kts
13-Feb-20 12:52 33.798281 -118.383692 143 3945ft 102kts
13-Feb-20 12:53 33.776703 -118.361842 142 3954ft 102kts
13-Feb-20 12:54 33.755361 -118.340103 142 4023ft 98kts
13-Feb-20 12:55 33.749596 -118.310835 72 4018ft 108kts
13-Feb-20 12:56 33.755443 -118.275648 83 4009ft 108kts
13-Feb-20 12:57 33.759954 -118.240113 83 4013ft 108kts
13-Feb-20 12:58 33.764460 -118.204721 84 4016ft 107kts
13-Feb-20 12:59 33.768794 -118.170303 83 4047ft 103kts
13-Feb-20 13:00 33.772951 -118.136638 82 4035ft 104kts
13-Feb-20 13:01 33.777184 -118.103169 82 4031ft 104kts
13-Feb-20 13:02 33.781487 -118.069534 82 3963ft 104kts
13-Feb-20 13:03 33.789329 -118.037734 60 3965ft 98kts
13-Feb-20 13:04 33.802137 -118.009658 64 4075ft 100kts
13-Feb-20 13:05 33.813849 -117.980606 65 4075ft 100kts
13-Feb-20 13:06 33.825852 -117.950340 63 3954ft 99kts
13-Feb-20 13:07 33.837569 -117.921076 64 3923ft 103kts
13-Feb-20 13:08 33.849300 -117.891286 67 3914ft 101kts
13-Feb-20 13:09 33.859890 -117.860088 66 3869ft 101kts
13-Feb-20 13:10 33.870952 -117.829404 65 3856ft 103kts
13-Feb-20 13:11 33.881995 -117.799576 65 3988ft 98kts
13-Feb-20 13:12 33.893362 -117.769076 66 4003ft 103kts
13-Feb-20 13:13 33.905032 -117.738101 57 4045ft 99kts
13-Feb-20 13:14 33.921253 -117.710805 34 4034ft 96kts
13-Feb-20 13:15 33.945159 -117.696846 25 3787ft 89kts
13-Feb-20 13:16 33.949340 -117.711125 181 3466ft 91kts
13-Feb-20 13:17 33.924699 -117.706846 210 3610ft 91kts
13-Feb-20 13:18 33.903132 -117.725275 232 3168ft 102kts
13-Feb-20 13:19 33.882668 -117.738383 197 3418ft 95kts
13-Feb-20 13:20 33.857771 -117.751532 207 3450ft 103kts
13-Feb-20 13:21 33.832875 -117.767862 209 3164ft 101kts
13-Feb-20 13:22 33.808350 -117.783645 200 2748ft 99kts
13-Feb-20 13:23 33.783830 -117.797980 207 2297ft 88kts
13-Feb-20 13:24 33.763659 -117.813144 202 2016ft 88kts
13-Feb-20 13:25 33.742476 -117.825877 205 1481ft 77kts
13-Feb-20 13:26 33.722673 -117.838501 202 1058ft 82kts
13-Feb-20 13:27 33.703158 -117.850966 214 636ft 77kts
13-Feb-20 13:28 33.683815 -117.863691 208 156ft 76kts
13-Feb-20 13:29 33.678125 -117.868453 298 59ft 0kts
13-Feb-20 13:30 33.675806 -117.870281 227 59ft 16kts
13-Feb-20 13:31 33.675733 -117.871059 224 59ft 0kts

Navigation Log

Ident Type
Flight plan parsing failed, navigation log unavailable